Antioch, Texas
Current Conditions -  °F | °C
As of 9:55 AM on Saturday 25 Oct 2014 (Local Time) from KOCH Reporting Station
Clear Clear  
Wind Chill: 66°   Ceiling: Unl
Heat Index: 66°   Visibility: 10mi
Dew Point: 57°   Wind: 5mph
Humidity: 73%   Direction: 260°W
Pressure: 30.2"   Gusts: NA
Location:  31.8636°N, 94.3909°W
Report Text: KOCH 251455Z AUTO 26004KT 10SM CLR 19/14 A3020 RMK AO1 52014
Loading
Personal Weather Stations






























Interactive Weather Map New forecast layout! Learn more

10-Day Weather Forecast

Advertisements
Track Severe Weather on mobile